createdAt,value
2022-10-15T00:04:35.489Z,100699.34
2022-10-15T00:09:41.833Z,100695.38
2022-10-15T00:14:54.422Z,100690.41
2022-10-15T00:19:58.496Z,100691.66
2022-10-15T00:25:00.226Z,100686.00
2022-10-15T00:30:07.250Z,100682.69
2022-10-15T00:35:09.134Z,100685.16
2022-10-15T00:40:12.229Z,100685.56
2022-10-15T00:45:15.847Z,100690.00
2022-10-15T00:50:22.996Z,100685.25
2022-10-15T00:55:27.639Z,100693.03
2022-10-15T01:00:31.636Z,100699.63
2022-10-15T01:05:41.621Z,100690.94
2022-10-15T01:10:57.185Z,100687.00
2022-10-15T01:21:34.775Z,100679.91
2022-10-15T01:26:53.903Z,100680.69
2022-10-15T01:32:04.583Z,100680.06
2022-10-15T01:37:27.352Z,100679.59
2022-10-15T01:42:38.471Z,100678.13
2022-10-15T01:47:48.440Z,100663.28
2022-10-15T01:52:55.910Z,100662.66
2022-10-15T01:58:05.740Z,100658.75
2022-10-15T02:03:10.068Z,100655.03
2022-10-15T02:08:34.651Z,100650.31
2022-10-15T02:13:59.753Z,100645.81
2022-10-15T02:19:29.648Z,100651.59
2022-10-15T02:24:41.180Z,100639.88
2022-10-15T02:29:49.462Z,100629.97
2022-10-15T02:34:52.417Z,100627.94
2022-10-15T02:39:56.784Z,100624.03
2022-10-15T02:45:02.160Z,100624.03
2022-10-15T02:50:07.888Z,100631.66
2022-10-15T02:55:14.258Z,100626.31
2022-10-15T03:00:18.993Z,100632.53
2022-10-15T03:05:23.883Z,100630.66
2022-10-15T03:10:28.496Z,100625.50
2022-10-15T03:15:33.675Z,100620.34
2022-10-15T03:20:41.913Z,100625.72
2022-10-15T03:25:43.728Z,100626.53
2022-10-15T03:30:49.655Z,100623.84
2022-10-15T03:35:55.258Z,100623.84
2022-10-15T03:40:58.157Z,100622.16
2022-10-15T03:46:12.311Z,100631.25
2022-10-15T03:51:22.029Z,100617.03
2022-10-15T03:56:30.943Z,100619.72
2022-10-15T04:01:51.750Z,100618.84
2022-10-15T04:06:54.427Z,100621.34
2022-10-15T04:12:01.249Z,100624.84
2022-10-15T04:17:06.541Z,100620.53
2022-10-15T04:22:09.155Z,100624.66
2022-10-15T04:27:19.754Z,100631.47
2022-10-15T04:32:23.944Z,100631.94
2022-10-15T04:37:31.891Z,100637.09
2022-10-15T04:42:34.380Z,100638.56
2022-10-15T04:47:37.334Z,100640.22
2022-10-15T04:52:48.865Z,100650.75
2022-10-15T04:57:52.230Z,100645.19
2022-10-15T05:03:03.832Z,100643.97
2022-10-15T05:08:18.784Z,100648.31
2022-10-15T05:13:40.664Z,100655.34
2022-10-15T05:18:47.448Z,100647.28
2022-10-15T05:23:51.508Z,100656.97
2022-10-15T05:29:15.809Z,100657.78
2022-10-15T05:34:19.471Z,100662.34
2022-10-15T05:39:37.448Z,100665.84
2022-10-15T05:44:39.206Z,100667.69
2022-10-15T05:49:40.935Z,100660.69
2022-10-15T05:54:56.425Z,100666.06
2022-10-15T05:59:58.166Z,100668.91
2022-10-15T06:05:02.409Z,100672.41
2022-10-15T06:10:07.098Z,100665.41
2022-10-15T06:15:11.697Z,100667.28
2022-10-15T06:20:21.015Z,100666.06
2022-10-15T06:25:26.014Z,100659.84
2022-10-15T06:30:27.980Z,100666.88
2022-10-15T06:35:35.248Z,100666.88
2022-10-15T06:40:38.697Z,100669.38
2022-10-15T06:45:43.088Z,100671.38
2022-10-15T06:50:51.577Z,100673.78
2022-10-15T06:55:59.671Z,100665.31
2022-10-15T07:01:10.121Z,100666.16
2022-10-15T07:06:15.445Z,100666.16
2022-10-15T07:11:19.758Z,100677.50
2022-10-15T07:16:26.483Z,100685.97
2022-10-15T07:21:33.011Z,100681.06
2022-10-15T07:26:41.617Z,100685.19
2022-10-15T07:31:46.654Z,100691.81
2022-10-15T07:36:52.291Z,100696.19
2022-10-15T07:41:54.162Z,100685.88
2022-10-15T07:46:55.971Z,100679.13
2022-10-15T07:52:00.073Z,100682.47
2022-10-15T07:57:07.373Z,100685.81
2022-10-15T08:02:16.886Z,100684.38
2022-10-15T08:07:20.867Z,100679.66
2022-10-15T08:12:22.826Z,100680.50
2022-10-15T08:17:26.885Z,100675.00
2022-10-15T08:22:28.643Z,100676.06
2022-10-15T08:27:32.077Z,100672.84
2022-10-15T08:32:38.355Z,100678.03
2022-10-15T08:37:42.327Z,100676.63
2022-10-15T08:42:46.342Z,100674.84
2022-10-15T08:47:53.466Z,100673.59
2022-10-15T08:52:58.594Z,100664.94
2022-10-15T08:58:13.952Z,100665.19
2022-10-15T09:03:34.068Z,100663.31
2022-10-15T09:09:08.870Z,100674.69
2022-10-15T09:14:17.155Z,100667.84
2022-10-15T09:19:24.786Z,100679.84
2022-10-15T09:24:35.341Z,100669.66
2022-10-15T09:29:48.161Z,100659.47
2022-10-15T09:34:55.071Z,100659.63
2022-10-15T09:40:10.731Z,100654.28
2022-10-15T09:45:14.889Z,100648.91
2022-10-15T09:55:41.344Z,100648.28
2022-10-15T10:01:03.255Z,100636.81
2022-10-15T10:06:12.962Z,100640.63
2022-10-15T10:11:21.404Z,100638.41
2022-10-15T10:16:23.995Z,100637.34
2022-10-15T10:21:39.202Z,100648.16
2022-10-15T10:26:43.498Z,100649.84
2022-10-15T10:31:50.355Z,100644.47
2022-10-15T10:37:03.732Z,100637.75
2022-10-15T10:42:21.566Z,100636.47
2022-10-15T10:47:25.781Z,100633.97
2022-10-15T10:52:34.219Z,100628.34
2022-10-15T10:57:48.471Z,100628.78
2022-10-15T11:02:54.044Z,100624.00
2022-10-15T11:08:18.914Z,100621.75
2022-10-15T11:13:33.085Z,100611.00
2022-10-15T11:19:19.833Z,100627.34
2022-10-15T11:24:48.874Z,100625.38
2022-10-15T11:30:06.516Z,100625.22
2022-10-15T11:35:20.152Z,100627.31
2022-10-15T11:40:53.543Z,100620.59
2022-10-15T11:46:34.351Z,100617.16
2022-10-15T11:52:08.163Z,100611.75
2022-10-15T11:57:13.983Z,100610.63
2022-10-15T12:02:37.856Z,100598.13
2022-10-15T12:07:43.996Z,100594.59
2022-10-15T12:12:53.618Z,100603.66
2022-10-15T12:18:28.154Z,100581.59
2022-10-15T12:23:37.714Z,100578.53
2022-10-15T12:28:48.341Z,100581.31
2022-10-15T12:33:55.555Z,100564.47
2022-10-15T12:39:33.589Z,100564.34
2022-10-15T12:44:53.098Z,100558.91
2022-10-15T12:50:04.991Z,100550.44
2022-10-15T12:55:39.475Z,100547.31
2022-10-15T13:00:46.100Z,100539.53
2022-10-15T13:05:53.115Z,100538.84
2022-10-15T13:11:27.690Z,100531.63
2022-10-15T13:16:34.679Z,100530.66
2022-10-15T13:21:49.905Z,100527.47
2022-10-15T13:26:52.392Z,100517.47
2022-10-15T13:31:59.270Z,100528.97
2022-10-15T13:37:04.623Z,100515.03
2022-10-15T13:42:19.490Z,100520.97
2022-10-15T13:47:29.916Z,100514.84
2022-10-15T13:52:31.874Z,100507.78
2022-10-15T13:57:36.168Z,100515.59
2022-10-15T14:02:37.955Z,100509.97
2022-10-15T14:07:54.736Z,100497.94
2022-10-15T14:12:56.517Z,100498.63
2022-10-15T14:18:00.576Z,100503.53
2022-10-15T14:23:02.313Z,100496.56
2022-10-15T14:28:05.564Z,100494.53
2022-10-15T14:33:42.209Z,100511.97
2022-10-15T14:38:49.710Z,100505.63
2022-10-15T14:44:15.112Z,100504.38
2022-10-15T14:49:31.807Z,100512.63
2022-10-15T14:54:56.865Z,100499.88
2022-10-15T15:00:05.327Z,100505.97
2022-10-15T15:05:11.226Z,100486.81
2022-10-15T15:10:18.892Z,100497.59
2022-10-15T15:15:24.940Z,100488.50
2022-10-15T15:20:26.870Z,100501.66
2022-10-15T15:25:41.840Z,100487.00
2022-10-15T15:30:45.130Z,100480.16
2022-10-15T15:35:51.521Z,100487.88
2022-10-15T15:40:53.188Z,100487.94
2022-10-15T15:45:54.999Z,100489.19
2022-10-15T15:51:06.035Z,100492.53
2022-10-15T15:56:07.788Z,100478.84
2022-10-15T16:01:12.197Z,100478.25
2022-10-15T16:06:14.068Z,100469.34
2022-10-15T16:11:15.852Z,100468.53
2022-10-15T16:16:17.622Z,100472.47
2022-10-15T16:21:26.412Z,100489.47
2022-10-15T16:26:28.962Z,100485.72
2022-10-15T16:31:36.922Z,100491.09
2022-10-15T16:36:40.956Z,100506.22
2022-10-15T16:41:42.679Z,100505.38
2022-10-15T16:46:46.699Z,100513.03
2022-10-15T16:51:56.032Z,100511.78
2022-10-15T16:57:03.389Z,100517.78
2022-10-15T17:02:06.203Z,100515.88
2022-10-15T17:07:10.063Z,100515.69
2022-10-15T17:12:17.255Z,100511.56
2022-10-15T17:17:25.212Z,100518.22
2022-10-15T17:22:30.784Z,100514.31
2022-10-15T17:27:35.716Z,100531.13
2022-10-15T17:32:37.598Z,100561.13
2022-10-15T17:37:41.464Z,100566.34
2022-10-15T17:42:47.815Z,100582.50
2022-10-15T17:47:52.535Z,100588.72
2022-10-15T17:52:54.988Z,100603.59
2022-10-15T17:57:59.762Z,100613.13
2022-10-15T18:03:06.907Z,100617.69
2022-10-15T18:08:12.279Z,100620.22
2022-10-15T18:13:14.048Z,100626.44
2022-10-15T18:18:22.054Z,100649.44
2022-10-15T18:23:25.986Z,100662.09
2022-10-15T18:28:30.330Z,100667.31
2022-10-15T18:33:32.376Z,100674.97
2022-10-15T18:38:37.877Z,100684.06
2022-10-15T18:43:41.680Z,100687.00
2022-10-15T18:48:44.084Z,100695.28
2022-10-15T18:53:46.136Z,100700.25
2022-10-15T18:58:52.410Z,100708.94
2022-10-15T19:03:58.223Z,100710.84
2022-10-15T19:09:02.089Z,100709.22
2022-10-15T19:14:08.926Z,100721.19
2022-10-15T19:19:14.936Z,100718.13
2022-10-15T19:24:21.213Z,100708.19
2022-10-15T19:29:23.094Z,100713.75
2022-10-15T19:34:29.126Z,100724.94
2022-10-15T19:39:32.776Z,100730.53
2022-10-15T19:44:35.114Z,100751.63
2022-10-15T19:49:39.491Z,100753.94
2022-10-15T19:54:45.904Z,100750.19
2022-10-15T19:59:53.461Z,100750.41
2022-10-15T20:05:00.042Z,100765.09
2022-10-15T20:10:04.217Z,100778.31
2022-10-15T20:15:09.421Z,100783.50
2022-10-15T20:20:16.049Z,100771.69
2022-10-15T20:25:17.788Z,100775.00
2022-10-15T20:30:19.493Z,100779.13
2022-10-15T20:35:23.820Z,100785.09
2022-10-15T20:40:25.684Z,100790.88
2022-10-15T20:45:34.576Z,100800.56
2022-10-15T20:50:38.699Z,100820.63
2022-10-15T20:55:44.988Z,100815.63
2022-10-15T21:00:51.572Z,100810.66
2022-10-15T21:05:57.828Z,100812.91
2022-10-15T21:11:06.500Z,100820.56
2022-10-15T21:16:11.229Z,100820.53
2022-10-15T21:21:17.739Z,100811.22
2022-10-15T21:26:23.837Z,100810.34
2022-10-15T21:31:28.183Z,100824.59
2022-10-15T21:36:35.387Z,100823.16
2022-10-15T21:41:38.995Z,100834.25
2022-10-15T21:46:43.380Z,100836.31
2022-10-15T21:51:45.066Z,100841.88
2022-10-15T21:56:47.540Z,100845.16
2022-10-15T22:01:54.723Z,100846.56
2022-10-15T22:06:59.868Z,100846.97
2022-10-15T22:12:01.643Z,100859.78
2022-10-15T22:17:05.976Z,100848.03
2022-10-15T22:22:09.627Z,100851.91
2022-10-15T22:27:13.564Z,100851.28
2022-10-15T22:32:17.746Z,100854.38
2022-10-15T22:37:21.691Z,100870.66
2022-10-15T22:42:25.760Z,100867.34
2022-10-15T22:47:34.505Z,100860.72
2022-10-15T22:52:38.305Z,100868.34
2022-10-15T22:57:42.566Z,100862.50
2022-10-15T23:02:49.012Z,100861.25
2022-10-15T23:07:53.038Z,100868.66
2022-10-15T23:12:57.802Z,100877.09
2022-10-15T23:18:04.562Z,100873.19
2022-10-15T23:23:08.829Z,100879.59
2022-10-15T23:28:15.369Z,100880.84
2022-10-15T23:33:19.226Z,100892.56
2022-10-15T23:38:23.236Z,100889.88
2022-10-15T23:43:24.953Z,100884.91
2022-10-15T23:48:27.395Z,100881.59
2022-10-15T23:53:34.125Z,100885.50
2022-10-15T23:58:38.456Z,100889.59
